createdAt,value
2023-02-06T00:00:51.511Z,11.38
2023-02-06T00:03:18.241Z,7.93
2023-02-06T00:05:54.108Z,9.45
2023-02-06T00:08:20.571Z,15.43
2023-02-06T00:10:47.093Z,10.27
2023-02-06T00:13:13.596Z,14.73
2023-02-06T00:15:40.227Z,11.40
2023-02-06T00:18:06.719Z,8.02
2023-02-06T00:20:33.303Z,17.02
2023-02-06T00:22:59.751Z,11.55
2023-02-06T00:25:26.225Z,10.60
2023-02-06T00:27:52.707Z,9.27
2023-02-06T00:30:19.272Z,6.15
2023-02-06T00:32:45.874Z,6.97
2023-02-06T00:35:12.748Z,7.57
2023-02-06T00:37:39.248Z,8.65
2023-02-06T00:40:06.240Z,9.03
2023-02-06T00:42:32.732Z,7.63
2023-02-06T00:44:59.132Z,11.25
2023-02-06T00:47:25.700Z,13.15
2023-02-06T00:49:52.171Z,10.00
2023-02-06T00:52:18.658Z,8.37
2023-02-06T00:54:45.118Z,12.43
2023-02-06T00:57:11.596Z,11.27
2023-02-06T00:59:38.128Z,15.80
2023-02-06T01:02:04.606Z,11.80
2023-02-06T01:04:31.380Z,21.27
2023-02-06T01:06:57.983Z,11.52
2023-02-06T01:09:24.560Z,30.58
2023-02-06T01:11:51.096Z,15.35
2023-02-06T01:14:17.899Z,14.52
2023-02-06T01:16:44.414Z,12.43
2023-02-06T01:19:10.975Z,15.27
2023-02-06T01:21:37.454Z,12.73
2023-02-06T01:24:04.078Z,16.20
2023-02-06T01:26:30.591Z,12.88
2023-02-06T01:28:57.344Z,10.63
2023-02-06T01:31:29.191Z,12.02
2023-02-06T01:33:58.531Z,10.20
2023-02-06T01:36:25.973Z,10.68
2023-02-06T01:38:53.036Z,8.05
2023-02-06T01:41:22.847Z,6.87
2023-02-06T01:44:08.118Z,9.13
2023-02-06T01:46:34.694Z,13.27
2023-02-06T01:49:01.991Z,18.25
2023-02-06T01:51:30.528Z,4.10
2023-02-06T01:54:06.640Z,10.50
2023-02-06T01:56:53.623Z,8.95
2023-02-06T01:59:21.021Z,8.27
2023-02-06T02:01:47.601Z,9.82
2023-02-06T02:04:18.220Z,13.18
2023-02-06T02:06:52.371Z,17.13
2023-02-06T02:09:19.787Z,12.32
2023-02-06T02:11:46.336Z,19.15
2023-02-06T02:14:15.424Z,7.53
2023-02-06T02:17:05.358Z,7.93
2023-02-06T02:19:50.611Z,11.77
2023-02-06T02:22:23.364Z,12.45
2023-02-06T02:25:08.998Z,10.85
2023-02-06T02:27:54.263Z,14.13
2023-02-06T02:30:51.834Z,15.38
2023-02-06T02:33:33.525Z,6.50
2023-02-06T02:36:12.496Z,10.55
2023-02-06T02:39:03.233Z,9.18
2023-02-06T02:41:49.962Z,6.72
2023-02-06T02:44:35.744Z,8.95
2023-02-06T02:47:07.114Z,6.60
2023-02-06T02:49:36.664Z,3.00
2023-02-06T02:52:04.220Z,13.20
2023-02-06T02:54:31.139Z,7.80
2023-02-06T02:57:06.030Z,7.55
2023-02-06T02:59:36.723Z,3.97
2023-02-06T03:02:07.948Z,5.05
2023-02-06T03:04:40.747Z,5.85
2023-02-06T03:07:35.076Z,9.70
2023-02-06T03:10:22.948Z,10.02
2023-02-06T03:12:58.333Z,5.73
2023-02-06T03:15:35.126Z,4.35
2023-02-06T03:18:10.461Z,4.93
2023-02-06T03:20:41.271Z,6.20
2023-02-06T03:23:08.440Z,6.78
2023-02-06T03:25:41.637Z,8.77
2023-02-06T03:28:17.528Z,4.32
2023-02-06T03:30:46.452Z,2.75
2023-02-06T03:33:17.507Z,8.63
2023-02-06T03:35:44.186Z,4.80
2023-02-06T03:38:10.983Z,5.53
2023-02-06T03:40:39.580Z,3.70
2023-02-06T03:43:07.845Z,5.78
2023-02-06T03:45:39.528Z,4.40
2023-02-06T03:48:11.625Z,3.33
2023-02-06T03:50:41.937Z,13.10
2023-02-06T03:53:11.736Z,9.45
2023-02-06T03:55:41.088Z,3.38
2023-02-06T03:58:13.414Z,6.80
2023-02-06T04:00:43.120Z,4.03
2023-02-06T04:03:11.164Z,6.57
2023-02-06T04:05:38.190Z,4.93
2023-02-06T04:08:05.395Z,2.15
2023-02-06T04:10:32.086Z,4.47
2023-02-06T04:12:58.599Z,7.10
2023-02-06T04:15:25.090Z,4.93
2023-02-06T04:17:59.993Z,1.77
2023-02-06T04:20:28.103Z,5.10
2023-02-06T04:22:54.639Z,8.45
2023-02-06T04:25:21.094Z,7.00
2023-02-06T04:27:47.641Z,4.50
2023-02-06T04:30:15.641Z,4.95
2023-02-06T04:32:42.238Z,5.90
2023-02-06T04:35:08.981Z,3.20
2023-02-06T04:37:36.052Z,3.63
2023-02-06T04:40:02.539Z,7.37
2023-02-06T04:42:29.082Z,2.13
2023-02-06T04:44:55.734Z,4.82
2023-02-06T04:47:22.248Z,6.82
2023-02-06T04:49:48.712Z,5.80
2023-02-06T04:52:15.398Z,5.63
2023-02-06T04:54:41.840Z,7.30
2023-02-06T04:57:08.411Z,8.13
2023-02-06T04:59:34.917Z,8.38
2023-02-06T05:02:01.865Z,3.15
2023-02-06T05:04:28.444Z,7.20
2023-02-06T05:06:54.941Z,5.03
2023-02-06T05:09:21.511Z,6.97
2023-02-06T05:11:48.015Z,5.93
2023-02-06T05:14:14.516Z,4.35
2023-02-06T05:16:40.976Z,5.90
2023-02-06T05:19:07.538Z,7.55
2023-02-06T05:21:34.100Z,5.18
2023-02-06T05:24:00.589Z,6.22
2023-02-06T05:26:27.212Z,5.13
2023-02-06T05:28:53.668Z,6.23
2023-02-06T05:31:20.566Z,7.82
2023-02-06T05:33:52.538Z,6.53
2023-02-06T05:36:20.427Z,5.60
2023-02-06T05:38:47.925Z,7.70
2023-02-06T05:41:15.511Z,4.03
2023-02-06T05:43:42.064Z,7.70
2023-02-06T05:46:08.963Z,2.47
2023-02-06T05:48:35.573Z,4.60
2023-02-06T05:51:02.351Z,6.78
2023-02-06T05:53:28.875Z,4.43
2023-02-06T05:55:56.037Z,4.63
2023-02-06T05:58:22.655Z,6.55
2023-02-06T06:00:49.113Z,5.40
2023-02-06T06:03:15.618Z,6.60
2023-02-06T06:05:42.201Z,3.40
2023-02-06T06:08:08.693Z,4.32
2023-02-06T06:10:35.375Z,11.20
2023-02-06T06:13:01.874Z,4.32
2023-02-06T06:15:28.508Z,6.15
2023-02-06T06:17:55.042Z,2.43
2023-02-06T06:20:21.697Z,2.33
2023-02-06T06:22:48.258Z,2.13
2023-02-06T06:25:14.751Z,6.00
2023-02-06T06:27:41.211Z,6.57
2023-02-06T06:30:08.560Z,7.10
2023-02-06T06:32:35.116Z,4.20
2023-02-06T06:35:01.756Z,6.28
2023-02-06T06:37:28.282Z,9.07
2023-02-06T06:39:54.768Z,3.08
2023-02-06T06:42:21.234Z,3.60
2023-02-06T06:44:47.788Z,4.80
2023-02-06T06:47:14.287Z,9.07
2023-02-06T06:49:40.732Z,2.90
2023-02-06T06:52:19.553Z,5.63
2023-02-06T06:54:52.353Z,3.70
2023-02-06T06:57:19.298Z,5.22
2023-02-06T06:59:45.835Z,6.00
2023-02-06T07:02:12.352Z,3.22
2023-02-06T07:04:38.894Z,4.68
2023-02-06T07:07:05.512Z,1.70
2023-02-06T07:09:32.057Z,3.08
2023-02-06T07:11:58.635Z,3.42
2023-02-06T07:14:25.272Z,5.75
2023-02-06T07:16:51.800Z,5.03
2023-02-06T07:19:18.292Z,6.87
2023-02-06T07:21:44.771Z,3.80
2023-02-06T07:24:11.283Z,5.75
2023-02-06T07:26:37.841Z,3.78
2023-02-06T07:29:04.396Z,5.03
2023-02-06T07:31:31.074Z,4.33
2023-02-06T07:33:57.694Z,10.98
2023-02-06T07:36:24.189Z,6.07
2023-02-06T07:38:50.660Z,10.20
2023-02-06T07:41:18.303Z,4.07
2023-02-06T07:43:44.785Z,7.10
2023-02-06T07:46:11.508Z,6.18
2023-02-06T07:48:38.030Z,4.72
2023-02-06T07:51:06.977Z,5.65
2023-02-06T07:53:34.075Z,5.63
2023-02-06T07:56:00.601Z,6.03
2023-02-06T07:58:27.620Z,6.97
2023-02-06T08:00:54.967Z,7.95
2023-02-06T08:03:21.598Z,5.32
2023-02-06T08:05:48.066Z,7.03
2023-02-06T08:08:14.520Z,8.37
2023-02-06T08:10:41.007Z,7.55
2023-02-06T08:13:08.000Z,3.90
2023-02-06T08:15:35.057Z,5.00
2023-02-06T08:18:01.884Z,4.60
2023-02-06T08:20:28.432Z,3.17
2023-02-06T08:22:55.085Z,10.40
2023-02-06T08:25:21.743Z,6.18
2023-02-06T08:27:52.433Z,4.45
2023-02-06T08:30:19.096Z,8.57
2023-02-06T08:32:45.599Z,9.27
2023-02-06T08:35:12.245Z,6.68
2023-02-06T08:37:38.946Z,4.93
2023-02-06T08:40:05.950Z,5.15
2023-02-06T08:42:32.459Z,3.70
2023-02-06T08:44:58.999Z,7.57
2023-02-06T08:47:25.536Z,4.40
2023-02-06T08:49:52.047Z,5.30
2023-02-06T08:52:18.953Z,7.60
2023-02-06T08:54:45.441Z,5.78
2023-02-06T08:57:12.999Z,4.90
2023-02-06T08:59:39.536Z,6.30
2023-02-06T09:02:08.259Z,7.00
2023-02-06T09:04:37.709Z,8.65
2023-02-06T09:07:04.729Z,2.13
2023-02-06T09:09:31.240Z,15.37
2023-02-06T09:12:02.200Z,6.80
2023-02-06T09:14:29.422Z,6.13
2023-02-06T09:16:58.123Z,13.60
2023-02-06T09:19:26.098Z,10.93
2023-02-06T09:21:52.943Z,5.60
2023-02-06T09:24:19.949Z,11.00
2023-02-06T09:26:59.006Z,8.15
2023-02-06T09:29:28.897Z,8.32
2023-02-06T09:31:57.344Z,9.45
2023-02-06T09:34:25.922Z,9.30
2023-02-06T09:36:54.761Z,10.45
2023-02-06T09:39:21.608Z,11.60
2023-02-06T09:41:52.325Z,11.07
2023-02-06T09:44:27.424Z,9.85
2023-02-06T09:47:15.864Z,11.40
2023-02-06T09:49:52.955Z,9.98
2023-02-06T09:53:02.584Z,10.90
2023-02-06T09:55:35.232Z,14.82
2023-02-06T09:58:20.653Z,13.55
2023-02-06T10:01:26.092Z,11.90
2023-02-06T10:04:01.838Z,9.35
2023-02-06T10:06:35.832Z,11.90
2023-02-06T10:09:27.128Z,6.65
2023-02-06T10:12:01.801Z,19.25
2023-02-06T10:14:46.304Z,16.07
2023-02-06T10:17:25.857Z,7.97
2023-02-06T10:20:01.683Z,16.67
2023-02-06T10:22:38.983Z,19.20
2023-02-06T10:25:27.313Z,14.07
2023-02-06T10:27:59.899Z,7.40
2023-02-06T10:30:59.196Z,7.53
2023-02-06T10:33:43.176Z,12.13
2023-02-06T10:36:39.531Z,16.40
2023-02-06T10:39:18.108Z,13.88
2023-02-06T10:41:55.330Z,12.37
2023-02-06T10:44:24.585Z,8.02
2023-02-06T10:46:54.173Z,11.27
2023-02-06T10:49:30.382Z,6.65
2023-02-06T10:52:01.138Z,11.23
2023-02-06T10:54:35.248Z,8.83
2023-02-06T10:57:02.253Z,13.05
2023-02-06T10:59:33.953Z,18.05
2023-02-06T11:02:23.916Z,8.20
2023-02-06T11:04:58.756Z,7.15
2023-02-06T11:07:47.456Z,10.03
2023-02-06T11:10:17.314Z,11.65
2023-02-06T11:13:12.628Z,11.23
2023-02-06T11:15:46.232Z,6.85
2023-02-06T11:18:17.806Z,17.27
2023-02-06T11:20:46.420Z,11.40
2023-02-06T11:23:18.073Z,8.85
2023-02-06T11:25:46.220Z,10.52
2023-02-06T11:28:16.082Z,11.95
2023-02-06T11:30:55.250Z,7.05
2023-02-06T11:33:27.032Z,11.67
2023-02-06T11:35:59.820Z,5.60
2023-02-06T11:38:29.534Z,8.27
2023-02-06T11:40:56.056Z,8.27
2023-02-06T11:43:26.060Z,9.98
2023-02-06T11:46:08.467Z,7.97
2023-02-06T11:48:47.314Z,10.27
2023-02-06T11:51:15.196Z,10.88
2023-02-06T11:54:02.255Z,7.85
2023-02-06T11:56:30.822Z,7.38
2023-02-06T11:59:14.630Z,5.87
2023-02-06T12:01:44.737Z,7.28
2023-02-06T12:04:34.041Z,9.82
2023-02-06T12:07:30.386Z,4.20
2023-02-06T12:09:57.249Z,9.32
2023-02-06T12:12:29.810Z,12.20
2023-02-06T12:15:29.538Z,4.38
2023-02-06T12:17:56.665Z,6.82
2023-02-06T12:20:27.961Z,5.95
2023-02-06T12:22:59.044Z,5.13
2023-02-06T12:25:38.293Z,6.30
2023-02-06T12:28:20.630Z,4.00
2023-02-06T12:31:04.767Z,7.22
2023-02-06T12:33:40.499Z,6.35
2023-02-06T12:36:17.357Z,6.30
2023-02-06T12:38:47.011Z,3.50
2023-02-06T12:41:32.051Z,10.18
2023-02-06T12:44:05.265Z,5.18
2023-02-06T12:46:32.163Z,4.28
2023-02-06T12:49:22.545Z,7.35
2023-02-06T12:51:55.263Z,10.00
2023-02-06T12:54:29.823Z,4.63
2023-02-06T12:57:03.657Z,7.35
2023-02-06T13:00:07.552Z,6.38
2023-02-06T13:02:46.215Z,4.97
2023-02-06T13:05:24.906Z,4.43
2023-02-06T13:07:54.225Z,8.40
2023-02-06T13:10:25.873Z,4.22
2023-02-06T13:12:58.516Z,5.03
2023-02-06T13:15:27.564Z,8.35
2023-02-06T13:17:55.872Z,7.97
2023-02-06T13:20:24.830Z,8.18
2023-02-06T13:23:14.599Z,5.85
2023-02-06T13:25:41.100Z,8.65
2023-02-06T13:28:22.777Z,12.85
2023-02-06T13:31:10.600Z,8.97
2023-02-06T13:33:43.793Z,11.68
2023-02-06T13:36:18.145Z,8.15
2023-02-06T13:38:44.764Z,6.55
2023-02-06T13:41:28.965Z,6.32
2023-02-06T13:44:06.582Z,7.10
2023-02-06T13:46:58.622Z,12.15
2023-02-06T13:49:43.360Z,8.55
2023-02-06T13:52:30.870Z,6.38
2023-02-06T13:55:20.931Z,3.25
2023-02-06T13:58:06.634Z,7.83
2023-02-06T14:00:39.467Z,5.60
2023-02-06T14:03:13.393Z,7.28
2023-02-06T14:05:45.573Z,3.08
2023-02-06T14:08:46.791Z,6.57
2023-02-06T14:11:34.617Z,5.63
2023-02-06T14:14:31.788Z,5.55
2023-02-06T14:17:41.447Z,7.82
2023-02-06T14:20:17.271Z,18.98
2023-02-06T14:22:51.011Z,9.18
2023-02-06T14:25:36.549Z,9.53
2023-02-06T14:28:19.228Z,9.32
2023-02-06T14:31:04.886Z,5.57
2023-02-06T14:33:34.476Z,9.52
2023-02-06T14:36:15.834Z,7.00
2023-02-06T14:38:45.277Z,5.53
2023-02-06T14:41:12.175Z,4.93
2023-02-06T14:43:43.045Z,13.85
2023-02-06T14:46:15.798Z,6.05
2023-02-06T14:48:49.736Z,8.00
2023-02-06T14:51:31.555Z,4.70
2023-02-06T14:54:02.190Z,6.43
2023-02-06T14:56:32.355Z,9.63
2023-02-06T14:59:14.106Z,5.93
2023-02-06T15:01:42.377Z,5.93
2023-02-06T15:04:22.320Z,6.47
2023-02-06T15:06:57.798Z,6.00
2023-02-06T15:09:34.416Z,9.50
2023-02-06T15:12:06.254Z,4.60
2023-02-06T15:14:35.330Z,10.63
2023-02-06T15:17:03.501Z,9.90
2023-02-06T15:19:32.618Z,7.07
2023-02-06T15:22:19.279Z,5.97
2023-02-06T15:24:53.360Z,12.55
2023-02-06T15:27:37.444Z,7.63
2023-02-06T15:30:22.000Z,7.77
2023-02-06T15:32:51.518Z,7.45
2023-02-06T15:35:33.245Z,5.40
2023-02-06T15:38:10.303Z,9.00
2023-02-06T15:40:39.266Z,7.85
2023-02-06T15:43:06.222Z,5.47
2023-02-06T15:45:36.255Z,13.45
2023-02-06T15:48:25.820Z,7.55
2023-02-06T15:51:15.427Z,7.30
2023-02-06T15:53:43.793Z,10.95
2023-02-06T15:56:32.115Z,4.97
2023-02-06T15:59:02.721Z,6.97
2023-02-06T16:01:31.939Z,6.43
2023-02-06T16:04:06.013Z,6.93
2023-02-06T16:06:32.570Z,8.38
2023-02-06T16:09:02.798Z,6.23
2023-02-06T16:11:50.639Z,7.28
2023-02-06T16:14:39.634Z,12.27
2023-02-06T16:17:15.389Z,9.15
2023-02-06T16:19:56.170Z,8.70
2023-02-06T16:22:26.876Z,6.53
2023-02-06T16:25:11.576Z,9.30
2023-02-06T16:27:44.060Z,9.23
2023-02-06T16:30:49.157Z,5.45
2023-02-06T16:33:32.048Z,6.65
2023-02-06T16:35:58.979Z,6.40
2023-02-06T16:38:25.543Z,4.50
2023-02-06T16:40:52.581Z,6.65
2023-02-06T16:43:20.114Z,5.10
2023-02-06T16:45:49.279Z,13.48
2023-02-06T16:48:17.689Z,7.10
2023-02-06T16:50:45.293Z,6.35
2023-02-06T16:53:24.933Z,6.82
2023-02-06T16:55:51.682Z,11.15
2023-02-06T16:58:21.627Z,10.85
2023-02-06T17:00:48.939Z,5.87
2023-02-06T17:03:17.628Z,10.00
2023-02-06T17:05:50.226Z,8.13
2023-02-06T17:08:18.769Z,4.63
2023-02-06T17:10:46.816Z,5.97
2023-02-06T17:13:18.543Z,5.80
2023-02-06T17:15:47.146Z,9.60
2023-02-06T17:18:16.619Z,6.47
2023-02-06T17:20:46.014Z,7.75
2023-02-06T17:23:12.791Z,7.93
2023-02-06T17:25:40.346Z,7.57
2023-02-06T17:28:09.146Z,5.70
2023-02-06T17:30:37.985Z,3.03
2023-02-06T17:33:06.449Z,5.05
2023-02-06T17:35:36.669Z,7.15
2023-02-06T17:38:08.072Z,5.50
2023-02-06T17:40:36.670Z,11.68
2023-02-06T17:43:04.702Z,6.78
2023-02-06T17:45:31.857Z,12.32
2023-02-06T17:47:58.561Z,7.03
2023-02-06T17:50:27.069Z,12.93
2023-02-06T17:52:55.617Z,10.20
2023-02-06T17:55:23.782Z,4.20
2023-02-06T17:57:50.585Z,2.72
2023-02-06T18:00:19.463Z,7.95
2023-02-06T18:02:46.476Z,10.07
2023-02-06T18:05:13.031Z,8.75
2023-02-06T18:07:40.547Z,7.78
2023-02-06T18:10:09.017Z,10.60
2023-02-06T18:12:35.556Z,8.35
2023-02-06T18:15:02.196Z,14.30
2023-02-06T18:17:28.827Z,13.80
2023-02-06T18:19:55.335Z,10.88
2023-02-06T18:22:22.205Z,9.18
2023-02-06T18:24:50.128Z,9.50
2023-02-06T18:27:17.804Z,9.70
2023-02-06T18:29:50.636Z,9.55
2023-02-06T18:32:18.567Z,12.68
2023-02-06T18:34:45.596Z,10.57
2023-02-06T18:37:12.206Z,9.93
2023-02-06T18:39:39.610Z,14.77
2023-02-06T18:42:24.615Z,9.48
2023-02-06T18:44:51.228Z,5.88
2023-02-06T18:47:18.940Z,10.18
2023-02-06T18:49:45.932Z,9.15
2023-02-06T18:52:12.568Z,7.77
2023-02-06T18:54:39.626Z,9.05
2023-02-06T18:57:06.513Z,3.60
2023-02-06T18:59:33.109Z,6.68
2023-02-06T19:01:59.683Z,11.55
2023-02-06T19:04:26.179Z,7.10
2023-02-06T19:06:52.963Z,6.53
2023-02-06T19:09:20.101Z,1.88
2023-02-06T19:11:48.288Z,3.50
2023-02-06T19:14:16.951Z,5.05
2023-02-06T19:16:47.387Z,3.10
2023-02-06T19:19:14.491Z,8.18
2023-02-06T19:21:43.608Z,5.03
2023-02-06T19:24:15.318Z,8.95
2023-02-06T19:26:42.791Z,3.72
2023-02-06T19:29:11.241Z,3.97
2023-02-06T19:31:40.492Z,4.78
2023-02-06T19:34:07.282Z,4.35
2023-02-06T19:36:33.880Z,9.45
2023-02-06T19:39:03.974Z,4.75
2023-02-06T19:41:32.760Z,8.17
2023-02-06T19:44:03.393Z,7.07
2023-02-06T19:46:30.082Z,5.43
2023-02-06T19:48:56.826Z,5.20
2023-02-06T19:51:29.639Z,10.80
2023-02-06T19:53:58.034Z,8.60
2023-02-06T19:56:26.135Z,5.00
2023-02-06T19:58:59.745Z,7.15
2023-02-06T20:01:29.556Z,14.98
2023-02-06T20:04:01.086Z,14.90
2023-02-06T20:06:29.506Z,15.97
2023-02-06T20:08:56.820Z,19.98
2023-02-06T20:11:23.748Z,23.00
2023-02-06T20:13:55.631Z,27.85
2023-02-06T20:16:29.093Z,26.95
2023-02-06T20:18:56.491Z,19.97
2023-02-06T20:21:29.495Z,15.25
2023-02-06T20:23:58.239Z,20.80
2023-02-06T20:26:27.946Z,20.08
2023-02-06T20:28:54.822Z,18.23
2023-02-06T20:31:22.290Z,15.30
2023-02-06T20:33:50.785Z,8.48
2023-02-06T20:36:20.228Z,6.65
2023-02-06T20:38:56.179Z,11.48
2023-02-06T20:41:26.258Z,18.92
2023-02-06T20:43:53.237Z,17.93
2023-02-06T20:46:21.459Z,10.07
2023-02-06T20:48:56.212Z,5.65
2023-02-06T20:51:23.089Z,3.75
2023-02-06T20:53:50.306Z,5.50
2023-02-06T20:56:17.493Z,8.53
2023-02-06T20:58:44.332Z,6.22
2023-02-06T21:01:14.941Z,8.85
2023-02-06T21:03:41.889Z,14.05
2023-02-06T21:06:08.789Z,12.38
2023-02-06T21:08:35.383Z,11.00
2023-02-06T21:11:02.256Z,12.25
2023-02-06T21:13:29.067Z,9.52
2023-02-06T21:15:57.664Z,11.40
2023-02-06T21:18:27.966Z,10.23
2023-02-06T21:20:56.250Z,14.13
2023-02-06T21:23:24.465Z,16.42
2023-02-06T21:25:52.894Z,21.08
2023-02-06T21:28:20.245Z,13.68
2023-02-06T21:30:47.857Z,8.75
2023-02-06T21:33:15.072Z,8.13
2023-02-06T21:35:51.912Z,11.13
2023-02-06T21:38:20.049Z,14.82
2023-02-06T21:40:46.891Z,12.25
2023-02-06T21:43:15.242Z,8.38
2023-02-06T21:45:43.226Z,4.70
2023-02-06T21:48:10.083Z,13.02
2023-02-06T21:50:41.280Z,19.30
2023-02-06T21:53:08.972Z,12.25
2023-02-06T21:55:41.968Z,8.02
2023-02-06T21:58:08.998Z,8.03
2023-02-06T22:00:35.654Z,29.35
2023-02-06T22:03:02.501Z,29.30
2023-02-06T22:05:29.225Z,75.90
2023-02-06T22:07:56.786Z,56.60
2023-02-06T22:10:23.317Z,52.87
2023-02-06T22:12:50.028Z,26.60
2023-02-06T22:15:16.726Z,8.75
2023-02-06T22:17:43.180Z,7.07
2023-02-06T22:20:09.984Z,5.72
2023-02-06T22:22:38.680Z,6.97
2023-02-06T22:25:05.833Z,10.95
2023-02-06T22:27:33.014Z,10.90
2023-02-06T22:29:59.530Z,14.32
2023-02-06T22:32:26.059Z,18.45
2023-02-06T22:34:53.936Z,20.23
2023-02-06T22:37:20.471Z,15.60
2023-02-06T22:39:46.991Z,12.70
2023-02-06T22:42:13.510Z,12.43
2023-02-06T22:44:40.048Z,10.13
2023-02-06T22:47:06.552Z,11.37
2023-02-06T22:49:33.046Z,11.45
2023-02-06T22:51:59.588Z,8.15
2023-02-06T22:54:26.181Z,10.93
2023-02-06T22:56:52.655Z,14.73
2023-02-06T22:59:24.735Z,12.50
2023-02-06T23:01:58.567Z,22.25
2023-02-06T23:04:30.125Z,14.50
2023-02-06T23:06:57.116Z,14.40
2023-02-06T23:09:29.392Z,9.30
2023-02-06T23:11:58.387Z,10.37
2023-02-06T23:14:26.239Z,11.82
2023-02-06T23:16:52.801Z,8.25
2023-02-06T23:19:20.673Z,9.88
2023-02-06T23:21:48.920Z,7.18
2023-02-06T23:24:15.989Z,8.23
2023-02-06T23:26:45.718Z,5.18
2023-02-06T23:29:17.762Z,13.65
2023-02-06T23:31:46.084Z,6.80
2023-02-06T23:34:13.994Z,7.43
2023-02-06T23:36:40.548Z,5.10
2023-02-06T23:39:07.049Z,6.30
2023-02-06T23:41:34.275Z,5.18
2023-02-06T23:44:04.273Z,9.05
2023-02-06T23:46:32.418Z,5.75
2023-02-06T23:48:59.048Z,5.53
2023-02-06T23:51:26.193Z,9.52
2023-02-06T23:53:53.135Z,7.57
2023-02-06T23:56:25.545Z,5.72
2023-02-06T23:58:53.682Z,5.55
